Time;durP1;ratioP1;P1;durP2;ratioP2;P2;SDS_P1;SDS_P2;PMS_P1;PMS_P2;Temp;Humidity;BMP_temperature;BMP_pressure;BME280_temperature;BME280_humidity;BME280_pressure;Samples;Min_cycle;Max_cycle;Signal;HPM_P1;HPM_P2
2021/12/29 00:01:25;;;;;;;62.53;16.85;;;;;;;;;;5051695;28;20029;-37
2021/12/29 00:03:51;;;;;;;93.43;16.40;;;;;;;;;;5052043;28;20033;-38
2021/12/29 00:06:17;;;;;;;57.72;17.38;;;;;;;;;;5052311;28;20071;-38
2021/12/29 00:08:43;;;;;;;61.58;17.75;;;;;;;;;;5051827;28;20025;-38
2021/12/29 00:11:09;;;;;;;64.55;17.20;;;;;;;;;;5051858;28;20082;-38
2021/12/29 00:13:35;;;;;;;54.42;17.35;;;;;;;;;;5051627;28;20075;-38
2021/12/29 00:16:01;;;;;;;51.55;15.23;;;;;;;;;;5051752;28;20025;-37
2021/12/29 00:18:30;;;;;;;63.63;15.95;;;;;;;;;;5052120;28;20054;-37
2021/12/29 00:20:56;;;;;;;51.35;14.40;;;;;;;;;;5051712;28;20064;-37
2021/12/29 00:23:22;;;;;;;70.47;15.05;;;;;;;;;;5051532;28;20033;-38
2021/12/29 00:25:47;;;;;;;60.10;13.75;;;;;;;;;;5051999;28;20033;-38
2021/12/29 00:28:14;;;;;;;45.78;14.65;;;;;;;;;;5052191;28;20023;-38
2021/12/29 00:30:40;;;;;;;66.28;17.33;;;;;;;;;;5051993;28;20040;-38
2021/12/29 00:33:06;;;;;;;54.78;14.77;;;;;;;;;;5052287;28;20025;-37
2021/12/29 00:35:34;;;;;;;44.17;13.27;;;;;;;;;;5051879;28;20366;-38
2021/12/29 00:38:02;;;;;;;46.72;15.55;;;;;;;;;;5052221;28;20086;-38
2021/12/29 00:40:28;;;;;;;44.50;15.70;;;;;;;;;;5052014;28;20128;-38
2021/12/29 00:42:54;;;;;;;35.80;13.27;;;;;;;;;;5052076;28;20111;-38
2021/12/29 00:45:19;;;;;;;37.97;13.40;;;;;;;;;;5052067;28;20021;-38
2021/12/29 00:47:45;;;;;;;39.03;14.38;;;;;;;;;;5051602;28;20029;-38
2021/12/29 00:50:14;;;;;;;43.08;15.85;;;;;;;;;;5051660;28;20045;-38
2021/12/29 00:52:41;;;;;;;41.47;14.27;;;;;;;;;;5051995;28;20163;-38
2021/12/29 00:55:07;;;;;;;36.47;14.50;;;;;;;;;;5051858;28;20560;-38
2021/12/29 00:57:33;;;;;;;36.33;14.10;;;;;;;;;;5051776;28;20052;-38
2021/12/29 00:59:59;;;;;;;39.63;14.20;;;;;;;;;;5050228;28;20021;-37
2021/12/29 01:02:25;;;;;;;39.50;13.75;;;;;;;;;;5050773;28;20051;-38
2021/12/29 01:04:51;;;;;;;34.00;13.73;;;;;;;;;;5051249;28;20021;-38
2021/12/29 01:07:16;;;;;;;29.65;12.38;;;;;;;;;;5052048;28;20017;-38
2021/12/29 01:09:44;;;;;;;41.10;13.38;;;;;;;;;;5051331;28;20052;-38
2021/12/29 01:12:10;;;;;;;32.10;12.07;;;;;;;;;;5051563;28;20033;-37
2021/12/29 01:14:40;;;;;;;26.83;10.82;;;;;;;;;;5051272;28;20052;-37
2021/12/29 01:17:06;;;;;;;;;;;;;;;;;;5052359;28;20033;-38
2021/12/29 01:19:32;;;;;;;26.45;10.07;;;;;;;;;;5051212;28;19936;-37
2021/12/29 01:21:59;;;;;;;53.00;13.93;;;;;;;;;;5051047;28;20025;-37
2021/12/29 01:24:27;;;;;;;52.03;13.82;;;;;;;;;;5050910;28;20040;-37
2021/12/29 01:26:53;;;;;;;35.58;13.20;;;;;;;;;;5051564;28;20381;-37
2021/12/29 01:29:19;;;;;;;32.67;12.50;;;;;;;;;;5051467;28;20033;-37
2021/12/29 01:31:45;;;;;;;33.92;12.05;;;;;;;;;;5051144;28;20120;-38
2021/12/29 01:34:11;;;;;;;26.38;10.73;;;;;;;;;;5051801;28;20096;-37
2021/12/29 01:36:38;;;;;;;29.30;11.40;;;;;;;;;;5051921;28;20053;-37
2021/12/29 01:39:07;;;;;;;20.23;9.13;;;;;;;;;;5052024;28;20040;-37
2021/12/29 01:41:32;;;;;;;21.58;10.25;;;;;;;;;;5051319;28;20037;-38
2021/12/29 01:43:59;;;;;;;20.10;9.68;;;;;;;;;;5051227;28;20112;-38
2021/12/29 01:46:25;;;;;;;20.25;9.60;;;;;;;;;;5051616;28;20047;-37
2021/12/29 01:48:50;;;;;;;36.13;13.48;;;;;;;;;;5051442;28;20025;-37
2021/12/29 01:51:18;;;;;;;30.25;12.05;;;;;;;;;;5051401;28;20051;-38
2021/12/29 01:54:14;;;;;;;21.95;9.32;;;;;;;;;;5051268;28;20023;-37
2021/12/29 01:56:43;;;;;;;34.38;11.40;;;;;;;;;;5051847;28;20096;-38
2021/12/29 01:59:09;;;;;;;25.42;10.38;;;;;;;;;;5051226;28;20116;-36
2021/12/29 02:01:34;;;;;;;13.40;6.97;;;;;;;;;;5051574;28;20123;-36
2021/12/29 02:04:00;;;;;;;26.50;13.77;;;;;;;;;;5051807;28;20025;-36
2021/12/29 02:06:26;;;;;;;41.47;18.00;;;;;;;;;;5051647;28;20067;-36
2021/12/29 02:08:54;;;;;;;36.92;15.70;;;;;;;;;;5051143;28;20024;-37
2021/12/29 02:11:28;;;;;;;32.35;15.57;;;;;;;;;;5051126;28;20668;-37
2021/12/29 02:13:55;;;;;;;37.72;16.05;;;;;;;;;;5051442;28;20025;-37
2021/12/29 02:16:20;;;;;;;38.03;16.13;;;;;;;;;;5052848;28;20036;-37
2021/12/29 02:18:53;;;;;;;36.80;15.50;;;;;;;;;;5054931;28;20029;-37
2021/12/29 02:21:21;;;;;;;37.13;16.00;;;;;;;;;;5055136;28;20025;-38
2021/12/29 02:24:05;;;;;;;30.88;14.65;;;;;;;;;;5055255;28;20385;-37
2021/12/29 02:26:33;;;;;;;35.25;15.98;;;;;;;;;;5054820;28;20040;-37
2021/12/29 02:29:01;;;;;;;31.25;13.98;;;;;;;;;;5052822;28;20083;-38
2021/12/29 02:31:28;;;;;;;37.47;15.73;;;;;;;;;;5053083;28;20116;-38
2021/12/29 02:33:55;;;;;;;32.78;15.10;;;;;;;;;;5052979;28;20075;-37
2021/12/29 02:36:21;;;;;;;32.70;14.90;;;;;;;;;;5053902;28;20025;-37
2021/12/29 02:38:51;;;;;;;30.27;13.75;;;;;;;;;;5054442;28;20033;-37
2021/12/29 02:41:18;;;;;;;36.60;14.63;;;;;;;;;;5054835;28;20377;-37
2021/12/29 02:43:45;;;;;;;31.33;15.65;;;;;;;;;;5054535;28;20025;-36
2021/12/29 02:46:14;;;;;;;27.35;12.50;;;;;;;;;;5054660;28;20025;-37
2021/12/29 02:48:53;;;;;;;33.10;14.50;;;;;;;;;;5054380;28;20040;-36
2021/12/29 02:51:19;;;;;;;30.20;14.18;;;;;;;;;;5054095;28;20057;-37
2021/12/29 02:53:44;;;;;;;32.03;13.68;;;;;;;;;;5054221;28;20487;-37
2021/12/29 02:56:10;;;;;;;35.42;14.80;;;;;;;;;;5054401;28;20029;-37
2021/12/29 02:58:36;;;;;;;36.80;15.32;;;;;;;;;;5054383;28;20437;-37
2021/12/29 03:01:05;;;;;;;33.97;14.35;;;;;;;;;;5054330;28;20583;-37
2021/12/29 03:03:33;;;;;;;36.07;15.63;;;;;;;;;;5054378;28;20032;-36
2021/12/29 03:05:59;;;;;;;32.05;15.68;;;;;;;;;;5054525;28;20028;-36
2021/12/29 03:08:26;;;;;;;32.17;14.15;;;;;;;;;;5054576;28;20024;-36
2021/12/29 03:10:53;;;;;;;31.05;14.38;;;;;;;;;;5054377;28;20509;-37
2021/12/29 03:13:23;;;;;;;34.22;15.73;;;;;;;;;;5054123;28;20043;-37
2021/12/29 03:15:50;;;;;;;32.33;15.93;;;;;;;;;;5054028;28;20056;-36
2021/12/29 03:18:16;;;;;;;40.65;15.77;;;;;;;;;;5054020;28;20107;-36
2021/12/29 03:20:42;;;;;;;43.30;18.38;;;;;;;;;;5053776;28;20112;-36
2021/12/29 03:23:08;;;;;;;38.50;16.75;;;;;;;;;;5053784;28;20055;-37
2021/12/29 03:25:33;;;;;;;38.85;16.55;;;;;;;;;;5054012;28;20052;-36
2021/12/29 03:28:00;;;;;;;31.33;14.98;;;;;;;;;;5052830;28;20052;-37
2021/12/29 03:30:31;;;;;;;42.15;17.17;;;;;;;;;;5053557;28;20040;-37
2021/12/29 03:33:03;;;;;;;39.72;17.40;;;;;;;;;;5053883;28;20415;-37
2021/12/29 03:35:37;;;;;;;35.13;16.15;;;;;;;;;;5053574;28;20083;-37
2021/12/29 03:38:05;;;;;;;43.38;17.70;;;;;;;;;;5053711;28;20107;-37
2021/12/29 03:40:31;;;;;;;38.13;16.27;;;;;;;;;;5053802;28;20354;-37
2021/12/29 03:42:57;;;;;;;33.60;15.23;;;;;;;;;;5053886;28;20108;-37
2021/12/29 03:45:23;;;;;;;37.53;16.27;;;;;;;;;;5053511;28;20059;-37
2021/12/29 03:47:49;;;;;;;41.88;17.13;;;;;;;;;;5052313;28;20036;-37
2021/12/29 03:50:15;;;;;;;46.22;17.20;;;;;;;;;;5053094;28;20025;-37
2021/12/29 03:52:40;;;;;;;42.92;17.67;;;;;;;;;;5053266;28;20162;-37
2021/12/29 03:55:07;;;;;;;50.20;17.35;;;;;;;;;;5053056;28;20032;-37
2021/12/29 03:57:33;;;;;;;42.75;18.52;;;;;;;;;;5052716;28;20544;-37
2021/12/29 03:59:58;;;;;;;40.47;16.90;;;;;;;;;;5052795;28;20104;-37
2021/12/29 04:02:24;;;;;;;51.72;18.52;;;;;;;;;;5052753;28;20112;-37
2021/12/29 04:04:49;;;;;;;50.75;17.67;;;;;;;;;;5053019;28;20469;-36
2021/12/29 04:07:15;;;;;;;50.60;17.95;;;;;;;;;;5053165;28;20029;-37
2021/12/29 04:09:40;;;;;;;51.58;18.73;;;;;;;;;;5052895;28;20472;-37
2021/12/29 04:12:07;;;;;;;45.38;18.42;;;;;;;;;;5052968;28;20029;-37
2021/12/29 04:14:33;;;;;;;44.17;17.30;;;;;;;;;;5052607;28;20027;-37
2021/12/29 04:17:07;;;;;;;47.60;18.75;;;;;;;;;;5052790;28;20072;-37
2021/12/29 04:20:54;;;;;;;54.60;19.40;;;;;;;;;;5052331;28;20039;-37
2021/12/29 04:22:27;;;;;;;53.50;18.98;;;;;;;;;;5051697;28;20032;-37
2021/12/29 04:24:52;;;;;;;45.75;18.85;;;;;;;;;;5052381;28;20033;-37
2021/12/29 04:27:21;;;;;;;48.40;19.23;;;;;;;;;;5051915;28;20039;-37
2021/12/29 04:29:46;;;;;;;54.28;19.20;;;;;;;;;;5052536;28;20567;-37
2021/12/29 04:32:12;;;;;;;53.15;19.33;;;;;;;;;;5052504;28;20052;-37
2021/12/29 04:34:37;;;;;;;49.00;19.27;;;;;;;;;;5052770;28;20151;-38
2021/12/29 04:37:03;;;;;;;57.95;19.48;;;;;;;;;;5052299;28;20429;-38
2021/12/29 04:39:28;;;;;;;65.47;18.27;;;;;;;;;;5052067;28;20021;-38
2021/12/29 04:41:54;;;;;;;103.95;21.90;;;;;;;;;;5052308;28;20079;-37
2021/12/29 04:44:20;;;;;;;72.15;19.45;;;;;;;;;;5052055;28;20129;-37
2021/12/29 04:46:46;;;;;;;81.38;19.85;;;;;;;;;;5052371;28;20039;-37
2021/12/29 04:49:14;;;;;;;107.18;20.55;;;;;;;;;;5051885;28;20029;-37
2021/12/29 04:51:51;;;;;;;86.95;18.88;;;;;;;;;;5052093;28;20049;-37
2021/12/29 04:54:17;;;;;;;118.68;20.48;;;;;;;;;;5052119;28;20032;-37
2021/12/29 04:56:44;;;;;;;113.90;18.55;;;;;;;;;;5050587;28;20036;-38
2021/12/29 04:59:09;;;;;;;81.70;20.17;;;;;;;;;;5050829;28;20041;-38
2021/12/29 05:01:35;;;;;;;114.88;19.17;;;;;;;;;;5051040;28;20369;-38
2021/12/29 05:04:01;;;;;;;85.03;19.13;;;;;;;;;;5051448;28;20149;-38
2021/12/29 05:09:10;;;;;;;129.32;18.48;;;;;;;;;;5052303;28;20045;-38
2021/12/29 05:11:35;;;;;;;102.88;16.73;;;;;;;;;;5051870;28;20029;-38
2021/12/29 05:14:01;;;;;;;75.95;17.08;;;;;;;;;;5052101;28;20396;-38
2021/12/29 05:16:28;;;;;;;77.65;16.85;;;;;;;;;;5051938;28;20017;-38
2021/12/29 05:18:56;;;;;;;60.55;17.42;;;;;;;;;;5051101;28;20057;-38
2021/12/29 05:21:23;;;;;;;62.22;17.48;;;;;;;;;;5051424;28;20484;-38
2021/12/29 05:23:48;;;;;;;91.05;15.82;;;;;;;;;;5051061;28;20037;-37
2021/12/29 05:26:14;;;;;;;73.30;16.33;;;;;;;;;;5051628;28;20539;-38
2021/12/29 05:28:40;;;;;;;75.68;17.10;;;;;;;;;;5051684;28;20027;-38
2021/12/29 05:31:05;;;;;;;62.72;16.30;;;;;;;;;;5051646;28;20382;-38
2021/12/29 05:33:31;;;;;;;62.15;15.13;;;;;;;;;;5051383;28;20039;-38
2021/12/29 05:35:56;;;;;;;64.82;17.35;;;;;;;;;;5051061;28;20112;-38
2021/12/29 05:38:22;;;;;;;88.60;18.70;;;;;;;;;;5051470;28;20036;-38
2021/12/29 05:40:48;;;;;;;58.25;16.92;;;;;;;;;;5051665;28;20025;-38
2021/12/29 05:43:14;;;;;;;92.15;16.60;;;;;;;;;;5051317;28;20056;-38
2021/12/29 05:45:40;;;;;;;69.38;16.20;;;;;;;;;;5051228;28;20040;-37
2021/12/29 05:48:06;;;;;;;78.85;16.98;;;;;;;;;;5049828;28;20544;-38
2021/12/29 05:50:32;;;;;;;75.72;17.58;;;;;;;;;;5051317;28;20077;-38
2021/12/29 05:52:58;;;;;;;78.47;17.30;;;;;;;;;;5054606;28;20039;-38
2021/12/29 05:55:24;;;;;;;64.03;16.48;;;;;;;;;;5055365;28;20033;-37
2021/12/29 05:57:50;;;;;;;82.13;16.52;;;;;;;;;;5055128;28;20372;-37
2021/12/29 06:00:20;;;;;;;81.03;14.82;;;;;;;;;;5055084;28;20021;-38
2021/12/29 06:02:46;;;;;;;;;;;;;;;;;;5055952;28;20298;-38
2021/12/29 06:05:11;;;;;;;55.85;14.30;;;;;;;;;;5055087;28;19956;-38
2021/12/29 06:07:38;;;;;;;49.35;13.30;;;;;;;;;;5055494;28;20096;-38
2021/12/29 06:10:06;;;;;;;46.50;15.63;;;;;;;;;;5054923;28;20028;-37
2021/12/29 06:12:31;;;;;;;47.60;14.48;;;;;;;;;;5055242;28;20036;-37
2021/12/29 06:14:57;;;;;;;41.65;12.93;;;;;;;;;;5054936;28;20068;-37
2021/12/29 06:17:22;;;;;;;48.45;13.32;;;;;;;;;;5055173;28;20461;-38
2021/12/29 06:19:48;;;;;;;44.33;12.07;;;;;;;;;;5054903;28;20029;-37
2021/12/29 06:22:14;;;;;;;66.57;13.27;;;;;;;;;;5054670;28;20400;-38
2021/12/29 06:24:41;;;;;;;26.25;10.07;;;;;;;;;;5054656;28;20029;-37
2021/12/29 06:27:07;;;;;;;64.35;12.52;;;;;;;;;;5054796;28;20021;-37
2021/12/29 06:29:33;;;;;;;25.90;10.13;;;;;;;;;;5054921;28;20392;-38
2021/12/29 06:32:00;;;;;;;32.55;10.52;;;;;;;;;;5054636;28;20025;-37
2021/12/29 06:34:26;;;;;;;37.85;11.68;;;;;;;;;;5053631;28;20429;-38
2021/12/29 06:36:53;;;;;;;36.33;9.18;;;;;;;;;;5054770;28;20029;-38
2021/12/29 06:39:18;;;;;;;14.43;5.82;;;;;;;;;;5054600;28;20053;-37
2021/12/29 06:41:45;;;;;;;5.65;3.75;;;;;;;;;;5054320;28;20091;-37
2021/12/29 06:44:11;;;;;;;20.48;8.20;;;;;;;;;;5054339;28;20116;-37
2021/12/29 06:46:37;;;;;;;39.28;7.25;;;;;;;;;;5054088;28;20032;-37
2021/12/29 06:49:03;;;;;;;91.88;13.68;;;;;;;;;;5054635;28;20033;-37
2021/12/29 06:51:28;;;;;;;86.30;14.88;;;;;;;;;;5054426;28;20120;-37
2021/12/29 06:53:54;;;;;;;35.75;9.60;;;;;;;;;;5054535;28;20117;-37
2021/12/29 06:56:20;;;;;;;132.40;19.13;;;;;;;;;;5053999;28;20405;-37
2021/12/29 06:58:45;;;;;;;11.50;6.07;;;;;;;;;;5054035;28;20036;-37
2021/12/29 07:01:12;;;;;;;52.72;16.27;;;;;;;;;;5054344;28;20033;-37
2021/12/29 07:03:38;;;;;;;65.10;14.88;;;;;;;;;;5052968;28;20091;-38
2021/12/29 07:06:04;;;;;;;54.42;16.50;;;;;;;;;;5054233;28;20061;-37
2021/12/29 07:08:29;;;;;;;60.33;18.90;;;;;;;;;;5054345;28;20519;-37
2021/12/29 07:10:55;;;;;;;45.53;15.77;;;;;;;;;;5054169;28;20514;-38
2021/12/29 07:13:21;;;;;;;67.60;18.50;;;;;;;;;;5053903;28;20033;-37
2021/12/29 07:15:47;;;;;;;69.82;19.85;;;;;;;;;;5053761;28;20043;-38
2021/12/29 07:18:13;;;;;;;90.15;20.95;;;;;;;;;;5053648;28;20021;-37
2021/12/29 07:20:39;;;;;;;65.22;15.93;;;;;;;;;;5053975;28;20029;-37
2021/12/29 07:23:05;;;;;;;51.08;15.45;;;;;;;;;;5053698;28;20484;-37
2021/12/29 07:25:30;;;;;;;52.53;13.30;;;;;;;;;;5053425;28;20104;-37
2021/12/29 07:27:56;;;;;;;47.15;14.63;;;;;;;;;;5052005;28;20060;-37
2021/12/29 07:30:22;;;;;;;54.38;13.02;;;;;;;;;;5053541;28;20444;-36
2021/12/29 07:32:48;;;;;;;34.17;13.85;;;;;;;;;;5053769;28;20372;-37
2021/12/29 07:35:14;;;;;;;85.32;16.40;;;;;;;;;;5053516;28;20029;-37
2021/12/29 07:37:39;;;;;;;74.85;15.90;;;;;;;;;;5053591;28;20112;-36
2021/12/29 07:40:08;;;;;;;45.28;13.48;;;;;;;;;;5051898;28;20037;-37
2021/12/29 07:42:37;;;;;;;60.65;14.73;;;;;;;;;;5053143;28;20025;-37
2021/12/29 07:45:06;;;;;;;54.58;15.43;;;;;;;;;;5053563;28;20496;-37
2021/12/29 07:47:33;;;;;;;35.17;13.20;;;;;;;;;;5052363;28;20051;-38
2021/12/29 07:49:59;;;;;;;43.90;14.38;;;;;;;;;;5053004;28;20345;-37
2021/12/29 07:52:24;;;;;;;45.30;13.73;;;;;;;;;;5052720;28;20084;-37
2021/12/29 07:54:50;;;;;;;40.22;13.52;;;;;;;;;;5052816;28;20021;-37
2021/12/29 07:57:15;;;;;;;62.05;14.95;;;;;;;;;;5052907;28;20032;-37
2021/12/29 07:59:41;;;;;;;46.85;14.63;;;;;;;;;;5052652;28;20476;-37
2021/12/29 08:02:14;;;;;;;48.17;15.13;;;;;;;;;;5052496;28;20025;-38
2021/12/29 08:04:39;;;;;;;50.00;15.88;;;;;;;;;;5053198;28;20032;-37
2021/12/29 08:07:05;;;;;;;43.90;16.63;;;;;;;;;;5052597;28;20025;-38
2021/12/29 08:09:30;;;;;;;38.67;16.35;;;;;;;;;;5053245;28;20029;-38
2021/12/29 08:11:56;;;;;;;47.38;16.92;;;;;;;;;;5053037;28;20040;-38
2021/12/29 08:14:21;;;;;;;34.13;14.93;;;;;;;;;;5051016;28;20403;-37
2021/12/29 08:16:47;;;;;;;44.17;17.48;;;;;;;;;;5052783;28;20032;-37
2021/12/29 08:19:13;;;;;;;45.10;17.48;;;;;;;;;;5052844;28;20025;-37
2021/12/29 08:21:38;;;;;;;42.97;17.17;;;;;;;;;;5052790;28;20037;-37
2021/12/29 08:24:04;;;;;;;52.92;21.08;;;;;;;;;;5052425;28;20017;-37
2021/12/29 08:26:29;;;;;;;47.05;18.63;;;;;;;;;;5052349;28;20044;-38
2021/12/29 08:28:57;;;;;;;49.85;17.48;;;;;;;;;;5052511;28;20078;-37
2021/12/29 08:31:24;;;;;;;44.72;17.55;;;;;;;;;;5052900;28;20381;-37
2021/12/29 08:33:49;;;;;;;56.92;19.02;;;;;;;;;;5052886;28;20017;-37
2021/12/29 08:36:15;;;;;;;60.97;21.65;;;;;;;;;;5052748;28;20017;-37
2021/12/29 08:38:41;;;;;;;58.92;17.98;;;;;;;;;;5052832;28;20063;-37
2021/12/29 08:41:06;;;;;;;54.78;20.00;;;;;;;;;;5052549;28;20029;-37
2021/12/29 08:43:32;;;;;;;63.67;20.27;;;;;;;;;;5053068;28;20383;-37
2021/12/29 08:45:58;;;;;;;53.67;19.27;;;;;;;;;;5052401;28;20025;-38
2021/12/29 08:48:24;;;;;;;61.70;21.25;;;;;;;;;;5053171;28;20021;-37
2021/12/29 08:50:51;;;;;;;55.97;20.08;;;;;;;;;;5052477;28;20091;-38
2021/12/29 08:53:17;;;;;;;54.47;19.73;;;;;;;;;;5052863;28;20068;-38
2021/12/29 08:55:46;;;;;;;57.95;19.17;;;;;;;;;;5052576;28;20104;-38
2021/12/29 08:58:14;;;;;;;66.88;21.15;;;;;;;;;;5052334;28;20476;-37
2021/12/29 09:00:40;;;;;;;56.60;19.85;;;;;;;;;;5052477;28;20043;-37
2021/12/29 09:03:06;;;;;;;65.70;21.42;;;;;;;;;;5052864;28;20021;-38
2021/12/29 09:05:33;;;;;;;51.85;20.27;;;;;;;;;;5052571;28;20021;-37
2021/12/29 09:07:58;;;;;;;68.22;24.42;;;;;;;;;;5052103;28;20021;-38
2021/12/29 09:10:24;;;;;;;62.58;23.52;;;;;;;;;;5052661;28;20028;-37
2021/12/29 09:12:51;;;;;;;59.13;24.13;;;;;;;;;;5052246;28;20103;-37
2021/12/29 09:15:19;;;;;;;69.55;26.17;;;;;;;;;;5052608;28;20380;-37
2021/12/29 09:17:45;;;;;;;75.53;25.35;;;;;;;;;;5052649;28;20378;-37
2021/12/29 09:20:16;;;;;;;59.15;22.42;;;;;;;;;;5051987;28;20028;-37
2021/12/29 09:22:42;;;;;;;64.10;22.92;;;;;;;;;;5052585;28;20029;-38
2021/12/29 09:25:08;;;;;;;70.40;23.13;;;;;;;;;;5051605;28;20063;-38
2021/12/29 09:27:34;;;;;;;66.72;24.30;;;;;;;;;;5052177;28;20021;-38
2021/12/29 09:30:00;;;;;;;82.45;26.98;;;;;;;;;;5051973;28;20504;-38
2021/12/29 09:32:30;;;;;;;82.35;28.65;;;;;;;;;;5051996;28;20029;-38
2021/12/29 09:34:59;;;;;;;70.03;26.55;;;;;;;;;;5051950;28;20029;-37
2021/12/29 09:37:30;;;;;;;59.90;23.23;;;;;;;;;;5051924;28;20033;-37
2021/12/29 09:39:56;;;;;;;65.78;24.25;;;;;;;;;;5052274;28;20090;-37
2021/12/29 09:42:22;;;;;;;61.63;22.77;;;;;;;;;;5052242;28;20045;-38
2021/12/29 09:44:50;;;;;;;60.35;23.50;;;;;;;;;;5051867;28;20407;-37
2021/12/29 09:47:17;;;;;;;54.28;21.48;;;;;;;;;;5052028;28;20485;-37
2021/12/29 09:49:42;;;;;;;69.78;25.05;;;;;;;;;;5051804;28;20036;-38
2021/12/29 09:52:08;;;;;;;70.38;26.88;;;;;;;;;;5051645;28;20040;-37
2021/12/29 09:54:33;;;;;;;66.93;22.33;;;;;;;;;;5052241;28;20025;-38
2021/12/29 09:57:00;;;;;;;72.45;24.58;;;;;;;;;;5052083;28;20038;-37
2021/12/29 09:59:26;;;;;;;86.93;25.52;;;;;;;;;;5051735;28;20025;-37
2021/12/29 10:01:52;;;;;;;76.68;26.52;;;;;;;;;;5051858;28;20029;-37
2021/12/29 10:04:17;;;;;;;74.65;24.92;;;;;;;;;;5051820;28;20029;-37
2021/12/29 10:06:43;;;;;;;71.90;25.92;;;;;;;;;;5052086;28;20493;-37
2021/12/29 10:09:16;;;;;;;84.95;28.25;;;;;;;;;;5051641;28;20068;-37
2021/12/29 10:11:42;;;;;;;69.72;27.52;;;;;;;;;;5051637;28;20052;-37
2021/12/29 10:14:10;;;;;;;63.33;23.25;;;;;;;;;;5051581;28;20115;-37
2021/12/29 10:16:36;;;;;;;67.18;20.85;;;;;;;;;;5051793;28;20025;-37
2021/12/29 10:19:08;;;;;;;55.25;17.92;;;;;;;;;;5051983;28;20147;-37
2021/12/29 10:21:35;;;;;;;51.63;15.88;;;;;;;;;;5051784;28;20033;-37
2021/12/29 10:24:01;;;;;;;61.80;16.35;;;;;;;;;;5051651;28;20040;-37
2021/12/29 10:26:33;;;;;;;48.45;16.13;;;;;;;;;;5051515;28;20120;-38
2021/12/29 10:29:03;;;;;;;45.53;15.65;;;;;;;;;;5051942;28;20025;-38
2021/12/29 10:31:41;;;;;;;56.92;17.00;;;;;;;;;;5051719;28;20094;-38
2021/12/29 10:34:10;;;;;;;45.42;14.48;;;;;;;;;;5051593;28;20120;-37
2021/12/29 10:36:56;;;;;;;54.78;17.27;;;;;;;;;;5052164;28;20358;-38
2021/12/29 10:39:37;;;;;;;52.08;16.45;;;;;;;;;;5055035;28;20028;-37
2021/12/29 10:42:16;;;;;;;48.85;14.55;;;;;;;;;;5053694;28;20082;-38
2021/12/29 10:44:48;;;;;;;42.58;13.70;;;;;;;;;;5054944;28;20036;-37
2021/12/29 10:47:24;;;;;;;58.45;17.02;;;;;;;;;;5054862;28;20378;-37
2021/12/29 10:50:05;;;;;;;40.47;15.23;;;;;;;;;;5054811;28;20021;-38
2021/12/29 10:52:39;;;;;;;33.55;13.05;;;;;;;;;;5054999;28;20642;-38
2021/12/29 10:55:18;;;;;;;49.15;15.98;;;;;;;;;;5055110;28;20032;-37
2021/12/29 10:57:45;;;;;;;42.60;14.75;;;;;;;;;;5054812;28;20519;-38
2021/12/29 11:00:18;;;;;;;48.40;16.77;;;;;;;;;;5054256;28;20035;-37
2021/12/29 11:02:46;;;;;;;43.63;15.20;;;;;;;;;;5054628;28;20033;-38
2021/12/29 11:05:12;;;;;;;45.60;17.33;;;;;;;;;;5054530;28;20060;-38
2021/12/29 11:07:39;;;;;;;38.38;14.80;;;;;;;;;;5053700;28;20037;-38
2021/12/29 11:10:14;;;;;;;47.33;17.33;;;;;;;;;;5052337;28;20435;-38
2021/12/29 11:12:53;;;;;;;35.70;15.60;;;;;;;;;;5053446;28;20029;-37
2021/12/29 11:15:33;;;;;;;42.97;16.02;;;;;;;;;;5054209;28;20383;-39
2021/12/29 11:18:06;;;;;;;;;;;;;;;;;;5053471;28;20145;-38
2021/12/29 11:20:33;;;;;;;41.75;16.27;;;;;;;;;;5052619;28;19917;-38
2021/12/29 11:23:11;;;;;;;50.38;20.02;;;;;;;;;;5050896;28;20539;-38
2021/12/29 11:25:38;;;;;;;77.88;23.50;;;;;;;;;;5052143;28;20082;-38
2021/12/29 11:28:04;;;;;;;96.55;25.58;;;;;;;;;;5051919;28;20112;-38
2021/12/29 11:30:31;;;;;;;45.78;18.35;;;;;;;;;;5053011;28;20693;-37
2021/12/29 11:33:09;;;;;;;40.97;15.95;;;;;;;;;;5053869;28;20319;-37
2021/12/29 11:35:44;;;;;;;52.00;17.65;;;;;;;;;;5054013;28;20013;-38
2021/12/29 11:38:11;;;;;;;46.47;17.60;;;;;;;;;;5054307;28;20029;-37
2021/12/29 11:40:40;;;;;;;44.88;16.35;;;;;;;;;;5051669;28;20025;-37
2021/12/29 11:43:09;;;;;;;43.22;16.50;;;;;;;;;;5054145;28;20463;-37
2021/12/29 11:45:39;;;;;;;44.58;17.13;;;;;;;;;;5053912;28;20480;-38
2021/12/29 11:48:05;;;;;;;41.08;16.25;;;;;;;;;;5053021;28;20488;-38
2021/12/29 11:50:34;;;;;;;43.83;16.15;;;;;;;;;;5243421;22;20138;-38
2021/12/29 11:53:16;;;;;;;41.83;16.27;;;;;;;;;;4994873;28;20026;-41
2021/12/29 11:55:48;;;;;;;47.58;17.33;;;;;;;;;;4993652;28;20036;-37
2021/12/29 11:58:19;;;;;;;51.85;18.27;;;;;;;;;;4992976;28;20105;-37
2021/12/29 12:01:11;;;;;;;46.15;17.08;;;;;;;;;;4992836;28;20557;-37
2021/12/29 12:03:51;;;;;;;44.30;16.45;;;;;;;;;;4992992;28;20037;-39
2021/12/29 12:06:30;;;;;;;40.78;15.50;;;;;;;;;;4993102;28;20392;-38
2021/12/29 12:09:09;;;;;;;36.90;15.18;;;;;;;;;;4992607;28;20043;-38
2021/12/29 12:11:36;;;;;;;36.28;14.27;;;;;;;;;;4993040;28;20045;-38
2021/12/29 12:14:03;;;;;;;35.50;15.15;;;;;;;;;;4992790;28;20030;-39
2021/12/29 12:16:29;;;;;;;42.50;15.98;;;;;;;;;;4992599;28;20469;-38
2021/12/29 12:18:57;;;;;;;36.13;16.98;;;;;;;;;;4992552;28;20065;-39
2021/12/29 12:21:24;;;;;;;36.85;16.60;;;;;;;;;;4992378;28;20048;-38
2021/12/29 12:23:51;;;;;;;36.85;16.70;;;;;;;;;;4992448;28;20034;-37
2021/12/29 12:26:22;;;;;;;34.45;15.50;;;;;;;;;;4992488;28;20026;-38
2021/12/29 12:28:51;;;;;;;38.83;16.52;;;;;;;;;;4991407;28;20037;-37
2021/12/29 12:31:26;;;;;;;39.05;15.55;;;;;;;;;;4992495;28;20417;-39
2021/12/29 12:33:53;;;;;;;36.08;16.33;;;;;;;;;;4992301;28;20034;-42
2021/12/29 12:36:19;;;;;;;43.17;18.15;;;;;;;;;;4992114;28;20034;-45
2021/12/29 12:38:47;;;;;;;40.78;17.77;;;;;;;;;;4992327;28;20027;-40
2021/12/29 12:41:12;;;;;;;43.30;17.92;;;;;;;;;;4992417;28;20029;-39
2021/12/29 12:43:57;;;;;;;47.25;19.73;;;;;;;;;;4992392;28;20413;-41
2021/12/29 12:46:47;;;;;;;42.33;17.10;;;;;;;;;;4992137;28;20034;-39
2021/12/29 12:49:26;;;;;;;54.13;24.48;;;;;;;;;;4983354;28;20046;-38
2021/12/29 12:52:01;;;;;;;64.85;25.38;;;;;;;;;;4992125;28;20069;-42
2021/12/29 12:54:29;;;;;;;74.93;26.45;;;;;;;;;;4991830;28;20115;-39
2021/12/29 12:56:57;;;;;;;67.28;25.35;;;;;;;;;;4992090;28;20035;-36
2021/12/29 12:59:23;;;;;;;67.05;27.15;;;;;;;;;;4992025;28;20054;-41
2021/12/29 13:01:50;;;;;;;57.83;21.35;;;;;;;;;;4991940;28;20089;-38
2021/12/29 13:04:16;;;;;;;65.18;25.00;;;;;;;;;;4991914;28;20038;-39
2021/12/29 13:06:44;;;;;;;64.53;26.10;;;;;;;;;;4991915;28;20030;-38
2021/12/29 13:09:10;;;;;;;75.93;28.83;;;;;;;;;;4991935;28;20382;-40
2021/12/29 13:11:37;;;;;;;70.88;27.08;;;;;;;;;;4991894;28;20038;-38
2021/12/29 13:14:05;;;;;;;78.55;31.40;;;;;;;;;;4991803;28;20030;-43
2021/12/29 13:16:32;;;;;;;83.43;32.13;;;;;;;;;;4990518;28;20557;-37
2021/12/29 13:18:58;;;;;;;54.80;23.73;;;;;;;;;;4991924;28;20064;-37
2021/12/29 13:21:30;;;;;;;63.58;24.63;;;;;;;;;;4991896;28;20114;-40
2021/12/29 13:23:59;;;;;;;68.07;25.63;;;;;;;;;;4992087;28;20033;-43
2021/12/29 13:26:28;;;;;;;60.63;22.75;;;;;;;;;;4991848;28;20029;-39
2021/12/29 13:28:54;;;;;;;53.08;22.15;;;;;;;;;;4992367;28;20084;-39
2021/12/29 13:31:22;;;;;;;62.20;25.67;;;;;;;;;;4992163;28;20516;-43
2021/12/29 13:33:50;;;;;;;63.42;26.45;;;;;;;;;;4992158;28;20026;-37
2021/12/29 13:36:17;;;;;;;64.32;25.02;;;;;;;;;;4992135;28;20039;-37
2021/12/29 13:38:44;;;;;;;58.95;24.05;;;;;;;;;;4991864;28;20536;-41
2021/12/29 13:41:16;;;;;;;54.35;21.98;;;;;;;;;;4991757;28;20046;-43
2021/12/29 13:43:44;;;;;;;57.17;22.73;;;;;;;;;;4991661;28;20034;-42
2021/12/29 13:46:12;;;;;;;57.53;22.05;;;;;;;;;;4991097;28;20026;-42
2021/12/29 13:48:39;;;;;;;57.92;25.17;;;;;;;;;;4991231;28;20367;-45
2021/12/29 13:51:08;;;;;;;59.25;25.38;;;;;;;;;;4990864;28;20050;-41
2021/12/29 13:53:36;;;;;;;51.42;23.45;;;;;;;;;;4991175;28;20057;-45
2021/12/29 13:56:26;;;;;;;54.92;23.58;;;;;;;;;;4991098;28;20161;-40
2021/12/29 13:59:05;;;;;;;48.45;22.67;;;;;;;;;;4988456;28;20042;-42
2021/12/29 14:01:36;;;;;;;57.05;23.10;;;;;;;;;;4987883;28;20370;-38
2021/12/29 14:04:02;;;;;;;54.05;23.92;;;;;;;;;;4990900;28;20026;-42
2021/12/29 14:06:28;;;;;;;53.00;24.10;;;;;;;;;;4991078;28;20023;-50
2021/12/29 14:08:54;;;;;;;51.97;23.55;;;;;;;;;;4991270;28;20643;-38
2021/12/29 14:11:22;;;;;;;52.53;23.08;;;;;;;;;;4991821;28;20049;-38
2021/12/29 14:14:00;;;;;;;50.75;22.80;;;;;;;;;;4995322;28;20033;-39
2021/12/29 14:16:27;;;;;;;48.72;22.58;;;;;;;;;;4995407;28;20628;-38
2021/12/29 14:18:55;;;;;;;46.22;21.33;;;;;;;;;;4995199;28;20026;-46
2021/12/29 14:21:41;;;;;;;46.35;20.95;;;;;;;;;;4995118;28;20041;-51
2021/12/29 14:24:12;;;;;;;50.72;21.90;;;;;;;;;;4994878;28;20030;-45
2021/12/29 14:26:42;;;;;;;51.03;22.33;;;;;;;;;;4994936;28;20035;-46